Overview Statistics Trail Chart Weather Telemetry Raw packets
 

This is the latest recevied weather packets stored in our database for station/object SV9TNF-51. If no packets are shown the sender has not sent any weather packets the latest 10 day(s).

<< 79 80 81 82 83 84 85 >>
Time Temp. Humidity Pressure Rain* Wind** Luminosity Snow
1788091939 34.44° C 36% 1013.2 hPa 0 mm 1.34 m/s, 355° - -
1788091639 34.44° C 38% 1013.2 hPa 0 mm 7.15 m/s, 302° - -
1788091339 35° C 37% 1013.2 hPa 0 mm 0.89 m/s, 60° - -
1788091038 34.44° C 38% 1013.2 hPa 0 mm 2.24 m/s, 123° - -
1788090739 35° C 39% 1013.2 hPa 0 mm 1.34 m/s, 134° - -
1788090438 35° C 39% 1012.5 hPa 0 mm 1.34 m/s, 136° - -
1788090138 34.44° C 40% 1012.5 hPa 0 mm 2.68 m/s, 125° - -
1788089838 33.33° C 42% 1012.5 hPa 0 mm 6.26 m/s, 337° - -
1788089538 34.44° C 39% 1012.5 hPa 0 mm 4.92 m/s, 214° - -
1788089252 36.11° C 36% 1012.5 hPa 0 mm 3.13 m/s, 55° - -
1788088938 36.11° C 38% 1012.5 hPa 0 mm 1.79 m/s, 134° - -
1788088638 36.67° C 36% 1012.5 hPa 0 mm 1.79 m/s, 107° - -
1788088338 36.11° C 34% 1012.5 hPa 0 mm 2.68 m/s, 100° - -
1788088038 36.11° C 35% 1012.5 hPa 0 mm 2.68 m/s, 155° - -
1788087738 35.56° C 37% 1012.5 hPa 0 mm 0.89 m/s, 157° - -
1788087438 35° C 39% 1012.5 hPa 0 mm 6.71 m/s, 324° - -
1788087138 35.56° C 37% 1012.5 hPa 0 mm 1.79 m/s, 125° - -
1788086837 35° C 39% 1012.5 hPa 0 mm 2.68 m/s, 119° - -
1788086537 35° C 37% 1012.5 hPa 0 mm 2.68 m/s, 95° - -
1788086237 35° C 41% 1012.5 hPa 0 mm 4.47 m/s, 125° - -
1788085937 35.56° C 36% 1012.5 hPa 0 mm 3.58 m/s, 156° - -
1788085637 36.11° C 37% 1012.5 hPa 0 mm 1.79 m/s, 133° - -
1788085337 36.11° C 35% 1013.2 hPa 0 mm 1.34 m/s, 124° - -
1788085037 35.56° C 37% 1013.2 hPa 0 mm 2.24 m/s, 124° - -
1788084737 33.89° C 40% 1013.6 hPa 0 mm 1.79 m/s, 144° - -

* Rain latest hour (hover to see other rain measurements)
** Current wind speed in m/s (hover to see current wind gust speed)